createdAt,value
2017-02-02T00:00:42.695Z,374
2017-02-02T00:01:42.796Z,369
2017-02-02T00:02:42.887Z,369
2017-02-02T00:03:43.012Z,370
2017-02-02T00:04:43.132Z,376
2017-02-02T00:05:43.235Z,373
2017-02-02T00:06:43.434Z,369
2017-02-02T00:07:43.538Z,366
2017-02-02T00:08:43.620Z,359
2017-02-02T00:09:43.737Z,351
2017-02-02T00:10:43.852Z,349
2017-02-02T00:11:43.944Z,350
2017-02-02T00:12:44.071Z,349
2017-02-02T00:13:44.193Z,349
2017-02-02T00:14:44.270Z,351
2017-02-02T00:15:44.377Z,363
2017-02-02T00:16:44.478Z,365
2017-02-02T00:17:44.599Z,360
2017-02-02T00:18:44.749Z,350
2017-02-02T00:19:44.855Z,354
2017-02-02T00:20:44.971Z,354
2017-02-02T00:21:45.109Z,349
2017-02-02T00:22:45.220Z,343
2017-02-02T00:23:45.342Z,341
2017-02-02T00:24:45.457Z,339
2017-02-02T00:25:45.540Z,346
2017-02-02T00:26:45.676Z,339
2017-02-02T00:27:45.761Z,334
2017-02-02T00:28:45.831Z,331
2017-02-02T00:29:45.936Z,329
2017-02-02T00:30:46.050Z,327
2017-02-02T00:31:46.153Z,326
2017-02-02T00:32:46.274Z,324
2017-02-02T00:33:46.365Z,322
2017-02-02T00:34:46.443Z,321
2017-02-02T00:35:46.522Z,322
2017-02-02T00:36:46.658Z,321
2017-02-02T00:37:46.747Z,319
2017-02-02T00:38:46.868Z,320
2017-02-02T00:39:47.054Z,319
2017-02-02T00:40:47.194Z,317
2017-02-02T00:41:47.304Z,317
2017-02-02T00:42:47.403Z,317
2017-02-02T00:43:47.488Z,314
2017-02-02T00:44:47.575Z,314
2017-02-02T00:45:47.692Z,314
2017-02-02T00:46:47.824Z,311
2017-02-02T00:47:47.957Z,312
2017-02-02T00:48:48.105Z,310
2017-02-02T00:49:48.207Z,309
2017-02-02T00:50:48.287Z,307
2017-02-02T00:51:48.389Z,309
2017-02-02T00:52:48.498Z,307
2017-02-02T00:53:48.609Z,307
2017-02-02T00:54:48.713Z,306
2017-02-02T00:55:48.800Z,305
2017-02-02T00:56:48.868Z,303
2017-02-02T00:57:48.983Z,304
2017-02-02T00:58:49.122Z,305
2017-02-02T00:59:49.189Z,303
2017-02-02T01:00:49.275Z,302
2017-02-02T01:01:49.367Z,300
2017-02-02T01:02:49.477Z,302
2017-02-02T01:03:49.587Z,298
2017-02-02T01:04:49.675Z,298
2017-02-02T01:05:49.798Z,298
2017-02-02T01:06:49.907Z,297
2017-02-02T01:07:49.980Z,296
2017-02-02T01:08:50.079Z,299
2017-02-02T01:09:50.210Z,296
2017-02-02T01:10:50.370Z,294
2017-02-02T01:11:50.458Z,294
2017-02-02T01:12:50.526Z,292
2017-02-02T01:13:50.604Z,294
2017-02-02T01:14:50.709Z,292
2017-02-02T01:15:50.874Z,295
2017-02-02T01:16:50.939Z,292
2017-02-02T01:17:51.053Z,291
2017-02-02T01:18:51.158Z,293
2017-02-02T01:19:51.249Z,293
2017-02-02T01:20:51.344Z,293
2017-02-02T01:21:51.453Z,291
2017-02-02T01:22:51.558Z,290
2017-02-02T01:23:51.664Z,293
2017-02-02T01:24:51.761Z,293
2017-02-02T01:25:51.832Z,291
2017-02-02T01:26:51.928Z,292
2017-02-02T01:27:52.004Z,291
2017-02-02T01:28:52.359Z,290
2017-02-02T01:29:52.447Z,290
2017-02-02T01:30:52.564Z,289
2017-02-02T01:31:52.656Z,290
2017-02-02T01:32:52.750Z,291
2017-02-02T01:33:52.864Z,290
2017-02-02T01:34:53.445Z,289
2017-02-02T01:35:53.557Z,290
2017-02-02T01:36:53.629Z,291
2017-02-02T01:37:53.752Z,290
2017-02-02T01:38:53.858Z,291
2017-02-02T01:39:53.933Z,291
2017-02-02T01:40:54.055Z,290
2017-02-02T01:41:54.125Z,290
2017-02-02T01:42:54.320Z,291
2017-02-02T01:43:54.443Z,290
2017-02-02T01:44:54.537Z,290
2017-02-02T01:45:54.624Z,289
2017-02-02T01:46:55.377Z,288
2017-02-02T01:47:54.842Z,288
2017-02-02T01:48:54.950Z,290
2017-02-02T01:49:55.018Z,291
2017-02-02T01:50:55.110Z,290
2017-02-02T01:51:55.239Z,289
2017-02-02T01:52:55.332Z,290
2017-02-02T01:53:55.417Z,288
2017-02-02T01:54:55.491Z,288
2017-02-02T01:55:55.592Z,290
2017-02-02T01:56:55.653Z,289
2017-02-02T01:57:55.799Z,288
2017-02-02T01:58:55.951Z,288
2017-02-02T01:59:56.017Z,287
2017-02-02T02:00:56.120Z,289
2017-02-02T02:01:56.297Z,287
2017-02-02T02:02:56.386Z,289
2017-02-02T02:03:56.483Z,289
2017-02-02T02:04:56.551Z,287
2017-02-02T02:05:56.697Z,288
2017-02-02T02:06:56.813Z,287
2017-02-02T02:07:58.383Z,288
2017-02-02T02:08:58.529Z,289
2017-02-02T02:09:58.624Z,288
2017-02-02T02:10:58.702Z,289
2017-02-02T02:11:58.791Z,287
2017-02-02T02:12:58.921Z,287
2017-02-02T02:13:59.046Z,287
2017-02-02T02:14:59.879Z,287
2017-02-02T02:15:59.178Z,288
2017-02-02T02:16:59.259Z,286
2017-02-02T02:17:59.351Z,287
2017-02-02T02:18:59.462Z,287
2017-02-02T02:19:59.545Z,287
2017-02-02T02:20:59.620Z,287
2017-02-02T02:21:59.757Z,288
2017-02-02T02:22:59.859Z,288
2017-02-02T02:23:59.965Z,288
2017-02-02T02:25:00.096Z,287
2017-02-02T02:26:00.240Z,289
2017-02-02T02:27:00.319Z,291
2017-02-02T02:28:00.403Z,288
2017-02-02T02:29:01.386Z,289
2017-02-02T02:30:01.392Z,288
2017-02-02T02:31:01.384Z,291
2017-02-02T02:32:01.387Z,291
2017-02-02T02:33:00.941Z,289
2017-02-02T02:34:01.058Z,289
2017-02-02T02:35:01.151Z,289
2017-02-02T02:36:01.258Z,289
2017-02-02T02:37:01.434Z,290
2017-02-02T02:38:01.508Z,290
2017-02-02T02:39:01.618Z,290
2017-02-02T02:40:01.738Z,289
2017-02-02T02:41:01.833Z,290
2017-02-02T02:42:01.921Z,290
2017-02-02T02:43:02.004Z,290
2017-02-02T02:44:02.106Z,290
2017-02-02T02:45:02.250Z,290
2017-02-02T02:46:02.359Z,291
2017-02-02T02:47:02.474Z,290
2017-02-02T02:48:02.685Z,290
2017-02-02T02:49:03.399Z,291
2017-02-02T02:50:02.893Z,291
2017-02-02T02:51:02.999Z,290
2017-02-02T02:52:03.063Z,293
2017-02-02T02:53:03.152Z,291
2017-02-02T02:54:03.274Z,292
2017-02-02T02:55:03.355Z,291
2017-02-02T02:56:03.468Z,291
2017-02-02T02:57:03.570Z,290
2017-02-02T02:58:03.647Z,291
2017-02-02T02:59:03.785Z,291
2017-02-02T03:00:03.904Z,291
2017-02-02T03:01:04.082Z,291
2017-02-02T03:02:04.206Z,291
2017-02-02T03:03:04.367Z,290
2017-02-02T03:04:04.476Z,291
2017-02-02T03:05:04.579Z,291
2017-02-02T03:06:05.390Z,292
2017-02-02T03:07:04.814Z,291
2017-02-02T03:08:04.969Z,292
2017-02-02T03:09:05.036Z,291
2017-02-02T03:10:05.143Z,291
2017-02-02T03:11:05.239Z,292
2017-02-02T03:12:05.318Z,291
2017-02-02T03:13:05.459Z,292
2017-02-02T03:14:05.554Z,293
2017-02-02T03:15:05.708Z,293
2017-02-02T03:16:05.810Z,293
2017-02-02T03:17:05.886Z,292
2017-02-02T03:18:06.024Z,291
2017-02-02T03:19:06.199Z,292
2017-02-02T03:20:06.317Z,292
2017-02-02T03:21:06.408Z,292
2017-02-02T03:22:06.576Z,292
2017-02-02T03:23:06.789Z,292
2017-02-02T03:24:06.907Z,292
2017-02-02T03:25:07.081Z,293
2017-02-02T03:26:07.157Z,292
2017-02-02T03:27:07.270Z,292
2017-02-02T03:28:07.383Z,292
2017-02-02T03:29:07.490Z,291
2017-02-02T03:30:07.608Z,293
2017-02-02T03:31:07.701Z,293
2017-02-02T03:32:07.818Z,293
2017-02-02T03:33:07.955Z,293
2017-02-02T03:34:08.062Z,293
2017-02-02T03:35:08.150Z,292
2017-02-02T03:36:08.259Z,293
2017-02-02T03:37:08.402Z,293
2017-02-02T03:38:08.525Z,293
2017-02-02T03:39:08.617Z,293
2017-02-02T03:40:08.695Z,293
2017-02-02T03:41:08.799Z,293
2017-02-02T03:42:08.876Z,292
2017-02-02T03:43:08.947Z,293
2017-02-02T03:44:09.011Z,293
2017-02-02T03:45:09.181Z,293
2017-02-02T03:46:09.263Z,294
2017-02-02T03:47:09.343Z,293
2017-02-02T03:48:09.401Z,294
2017-02-02T03:49:09.529Z,294
2017-02-02T03:50:09.613Z,293
2017-02-02T03:51:09.745Z,293
2017-02-02T03:52:09.883Z,293
2017-02-02T03:53:10.012Z,294
2017-02-02T03:54:10.127Z,293
2017-02-02T03:55:10.207Z,293
2017-02-02T03:56:10.314Z,294
2017-02-02T03:57:10.418Z,294
2017-02-02T03:58:10.592Z,294
2017-02-02T03:59:10.694Z,294
2017-02-02T04:00:10.789Z,293
2017-02-02T04:01:10.875Z,294
2017-02-02T04:02:10.992Z,294
2017-02-02T04:03:11.076Z,293
2017-02-02T04:04:11.169Z,293
2017-02-02T04:05:11.287Z,293
2017-02-02T04:06:11.394Z,294
2017-02-02T04:07:11.501Z,294
2017-02-02T04:08:11.596Z,293
2017-02-02T04:09:11.681Z,294
2017-02-02T04:10:11.812Z,294
2017-02-02T04:11:11.930Z,294
2017-02-02T04:12:12.051Z,294
2017-02-02T04:13:12.146Z,294
2017-02-02T04:14:12.299Z,294
2017-02-02T04:15:12.412Z,293
2017-02-02T04:16:12.532Z,294
2017-02-02T04:17:12.637Z,294
2017-02-02T04:18:12.725Z,294
2017-02-02T04:19:12.798Z,294
2017-02-02T04:20:12.899Z,294
2017-02-02T04:21:12.981Z,294
2017-02-02T04:22:13.117Z,294
2017-02-02T04:23:13.217Z,294
2017-02-02T04:24:13.318Z,294
2017-02-02T04:25:13.402Z,294
2017-02-02T04:26:13.500Z,294
2017-02-02T04:27:13.659Z,293
2017-02-02T04:28:13.752Z,294
2017-02-02T04:29:13.886Z,294
2017-02-02T04:30:13.993Z,294
2017-02-02T04:31:14.123Z,294
2017-02-02T04:32:14.233Z,294
2017-02-02T04:33:14.298Z,295
2017-02-02T04:34:14.372Z,294
2017-02-02T04:35:14.547Z,294
2017-02-02T04:36:14.632Z,294
2017-02-02T04:37:14.735Z,293
2017-02-02T04:38:14.850Z,293
2017-02-02T04:39:14.940Z,294
2017-02-02T04:40:15.079Z,294
2017-02-02T04:41:15.156Z,294
2017-02-02T04:42:15.268Z,294
2017-02-02T04:43:15.400Z,294
2017-02-02T04:44:15.516Z,294
2017-02-02T04:45:15.590Z,294
2017-02-02T04:46:15.668Z,295
2017-02-02T04:47:15.766Z,294
2017-02-02T04:48:15.857Z,294
2017-02-02T04:49:15.976Z,294
2017-02-02T04:50:16.049Z,294
2017-02-02T04:51:16.129Z,294
2017-02-02T04:52:16.211Z,294
2017-02-02T04:53:16.315Z,294
2017-02-02T04:54:16.469Z,294
2017-02-02T04:55:16.611Z,294
2017-02-02T04:56:16.749Z,294
2017-02-02T04:57:16.850Z,294
2017-02-02T04:58:17.015Z,294
2017-02-02T04:59:17.127Z,294
2017-02-02T05:00:17.229Z,294
2017-02-02T05:01:17.402Z,294
2017-02-02T05:02:17.534Z,294
2017-02-02T05:03:17.647Z,294
2017-02-02T05:04:17.740Z,294
2017-02-02T05:05:17.879Z,294
2017-02-02T05:06:17.967Z,294
2017-02-02T05:07:18.038Z,293
2017-02-02T05:08:18.155Z,294
2017-02-02T05:09:18.234Z,294
2017-02-02T05:10:19.909Z,294
2017-02-02T05:11:19.068Z,294
2017-02-02T05:12:19.197Z,294
2017-02-02T05:13:19.251Z,294
2017-02-02T05:14:19.314Z,294
2017-02-02T05:15:19.446Z,294
2017-02-02T05:16:19.549Z,294
2017-02-02T05:17:19.680Z,294
2017-02-02T05:18:19.781Z,294
2017-02-02T05:19:19.897Z,294
2017-02-02T05:20:20.024Z,294
2017-02-02T05:21:20.171Z,294
2017-02-02T05:22:20.288Z,294
2017-02-02T05:23:20.419Z,295
2017-02-02T05:24:20.503Z,294
2017-02-02T05:25:20.609Z,294
2017-02-02T05:26:20.843Z,294
2017-02-02T05:27:20.953Z,295
2017-02-02T05:28:21.096Z,295
2017-02-02T05:29:21.167Z,295
2017-02-02T05:30:21.301Z,295
2017-02-02T05:31:21.469Z,295
2017-02-02T05:32:21.575Z,294
2017-02-02T05:33:21.648Z,295
2017-02-02T05:34:21.824Z,295
2017-02-02T05:35:21.934Z,294
2017-02-02T05:36:22.057Z,295
2017-02-02T05:37:22.184Z,294
2017-02-02T05:38:22.272Z,295
2017-02-02T05:39:22.370Z,295
2017-02-02T05:40:22.435Z,295
2017-02-02T05:41:22.516Z,294
2017-02-02T05:42:22.622Z,295
2017-02-02T05:43:22.779Z,295
2017-02-02T05:44:22.845Z,295
2017-02-02T05:45:22.965Z,294
2017-02-02T05:46:23.123Z,295
2017-02-02T05:47:23.221Z,294
2017-02-02T05:48:23.294Z,294
2017-02-02T05:49:23.416Z,294
2017-02-02T05:50:23.497Z,295
2017-02-02T05:51:23.616Z,295
2017-02-02T05:52:23.745Z,294
2017-02-02T05:53:23.832Z,294
2017-02-02T05:54:23.929Z,295
2017-02-02T05:55:24.002Z,294
2017-02-02T05:56:24.080Z,295
2017-02-02T05:57:24.206Z,294
2017-02-02T05:58:24.324Z,295
2017-02-02T05:59:24.387Z,294
2017-02-02T06:00:24.490Z,295
2017-02-02T06:01:24.594Z,295
2017-02-02T06:02:24.707Z,295
2017-02-02T06:03:24.804Z,294
2017-02-02T06:04:24.891Z,295
2017-02-02T06:05:24.997Z,295
2017-02-02T06:06:25.084Z,294
2017-02-02T06:07:25.205Z,294
2017-02-02T06:08:25.284Z,295
2017-02-02T06:09:25.352Z,295
2017-02-02T06:10:25.455Z,295
2017-02-02T06:11:25.539Z,295
2017-02-02T06:12:25.637Z,295
2017-02-02T06:13:25.768Z,294
2017-02-02T06:14:25.856Z,294
2017-02-02T06:15:25.986Z,294
2017-02-02T06:16:26.084Z,294
2017-02-02T06:17:26.142Z,294
2017-02-02T06:18:26.309Z,295
2017-02-02T06:19:26.406Z,294
2017-02-02T06:20:26.475Z,294
2017-02-02T06:21:26.564Z,294
2017-02-02T06:22:26.658Z,295
2017-02-02T06:23:26.790Z,295
2017-02-02T06:24:26.868Z,294
2017-02-02T06:25:26.936Z,294
2017-02-02T06:26:27.101Z,295
2017-02-02T06:27:27.267Z,294
2017-02-02T06:28:27.395Z,295
2017-02-02T06:29:27.483Z,295
2017-02-02T06:30:27.619Z,294
2017-02-02T06:31:27.680Z,295
2017-02-02T06:32:27.753Z,294
2017-02-02T06:33:27.862Z,294
2017-02-02T06:34:27.969Z,295
2017-02-02T06:35:28.101Z,294
2017-02-02T06:36:28.269Z,294
2017-02-02T06:37:28.339Z,295
2017-02-02T06:38:28.452Z,294
2017-02-02T06:39:28.548Z,294
2017-02-02T06:40:28.631Z,294
2017-02-02T06:41:28.795Z,295
2017-02-02T06:42:28.907Z,295
2017-02-02T06:43:29.055Z,294
2017-02-02T06:44:29.183Z,294
2017-02-02T06:45:29.309Z,295
2017-02-02T06:46:29.468Z,294
2017-02-02T06:47:29.552Z,295
2017-02-02T06:48:29.664Z,295
2017-02-02T06:49:29.808Z,294
2017-02-02T06:50:29.919Z,295
2017-02-02T06:51:29.989Z,295
2017-02-02T06:52:30.116Z,294
2017-02-02T06:53:30.251Z,295
2017-02-02T06:54:30.333Z,295
2017-02-02T06:55:30.482Z,295
2017-02-02T06:56:30.669Z,295
2017-02-02T06:57:30.788Z,294
2017-02-02T06:58:30.884Z,295
2017-02-02T06:59:30.967Z,294
2017-02-02T07:00:31.140Z,295
2017-02-02T07:01:31.182Z,295
2017-02-02T07:02:31.312Z,295
2017-02-02T07:03:31.419Z,295
2017-02-02T07:04:31.546Z,294
2017-02-02T07:05:31.637Z,295
2017-02-02T07:06:31.740Z,295
2017-02-02T07:07:31.842Z,295
2017-02-02T07:08:31.927Z,295
2017-02-02T07:09:32.096Z,295
2017-02-02T07:10:32.223Z,295
2017-02-02T07:11:32.356Z,295
2017-02-02T07:12:32.480Z,295
2017-02-02T07:13:32.591Z,295
2017-02-02T07:14:32.660Z,294
2017-02-02T07:15:32.790Z,295
2017-02-02T07:16:32.907Z,295
2017-02-02T07:17:33.014Z,295
2017-02-02T07:18:33.136Z,295
2017-02-02T07:19:33.252Z,295
2017-02-02T07:20:33.423Z,295
2017-02-02T07:21:33.588Z,295
2017-02-02T07:22:33.751Z,295
2017-02-02T07:23:33.835Z,295
2017-02-02T07:24:33.922Z,296
2017-02-02T07:25:33.993Z,296
2017-02-02T07:26:34.087Z,296
2017-02-02T07:27:34.195Z,296
2017-02-02T07:28:34.272Z,296
2017-02-02T07:29:34.402Z,296
2017-02-02T07:30:34.538Z,296
2017-02-02T07:31:34.677Z,296
2017-02-02T07:32:34.782Z,296
2017-02-02T07:33:34.891Z,295
2017-02-02T07:34:34.991Z,295
2017-02-02T07:35:35.094Z,296
2017-02-02T07:36:35.248Z,296
2017-02-02T07:37:35.316Z,296
2017-02-02T07:38:35.397Z,296
2017-02-02T07:39:35.486Z,296
2017-02-02T07:40:35.586Z,296
2017-02-02T07:41:35.659Z,296
2017-02-02T07:42:35.774Z,296
2017-02-02T07:43:35.841Z,296
2017-02-02T07:44:35.925Z,296
2017-02-02T07:45:36.010Z,297
2017-02-02T07:46:36.101Z,297
2017-02-02T07:47:36.222Z,296
2017-02-02T07:48:36.342Z,297
2017-02-02T07:49:36.468Z,296
2017-02-02T07:50:36.596Z,297
2017-02-02T07:51:36.689Z,297
2017-02-02T07:52:36.803Z,297
2017-02-02T07:53:36.891Z,297
2017-02-02T07:54:37.151Z,297
2017-02-02T07:55:37.286Z,298
2017-02-02T07:56:37.405Z,298
2017-02-02T07:57:37.506Z,299
2017-02-02T07:58:37.654Z,299
2017-02-02T07:59:37.762Z,299
2017-02-02T08:00:37.874Z,297
2017-02-02T08:01:37.951Z,298
2017-02-02T08:02:38.065Z,297
2017-02-02T08:03:38.193Z,297
2017-02-02T08:04:38.298Z,297
2017-02-02T08:05:38.374Z,297
2017-02-02T08:06:38.512Z,297
2017-02-02T08:07:38.608Z,297
2017-02-02T08:08:38.750Z,298
2017-02-02T08:09:38.845Z,298
2017-02-02T08:10:38.952Z,298
2017-02-02T08:11:39.059Z,298
2017-02-02T08:12:39.223Z,298
2017-02-02T08:13:39.341Z,297
2017-02-02T08:14:39.397Z,297
2017-02-02T08:15:39.508Z,297
2017-02-02T08:16:39.601Z,297
2017-02-02T08:17:39.737Z,296
2017-02-02T08:18:39.830Z,291
2017-02-02T08:19:39.921Z,289
2017-02-02T08:20:39.997Z,289
2017-02-02T08:21:40.111Z,288
2017-02-02T08:22:40.212Z,287
2017-02-02T08:23:40.379Z,286
2017-02-02T08:24:40.459Z,285
2017-02-02T08:25:40.522Z,285
2017-02-02T08:26:40.625Z,285
2017-02-02T08:27:40.738Z,284
2017-02-02T08:28:40.842Z,284
2017-02-02T08:29:40.947Z,284
2017-02-02T08:30:41.066Z,283
2017-02-02T08:31:41.161Z,283
2017-02-02T08:32:41.281Z,282
2017-02-02T08:33:41.407Z,282
2017-02-02T08:34:41.539Z,281
2017-02-02T08:35:41.634Z,281
2017-02-02T08:36:41.712Z,281
2017-02-02T08:37:41.847Z,281
2017-02-02T08:38:41.958Z,282
2017-02-02T08:39:42.050Z,282
2017-02-02T08:40:42.208Z,282
2017-02-02T08:41:42.283Z,282
2017-02-02T08:42:42.363Z,282
2017-02-02T08:43:42.476Z,282
2017-02-02T08:44:42.571Z,282
2017-02-02T08:45:42.649Z,282
2017-02-02T08:46:42.727Z,283
2017-02-02T08:47:42.855Z,282
2017-02-02T08:48:43.068Z,282
2017-02-02T08:49:43.142Z,282
2017-02-02T08:50:43.250Z,277
2017-02-02T08:51:43.363Z,276
2017-02-02T08:52:43.474Z,277
2017-02-02T08:53:43.556Z,279
2017-02-02T08:54:43.626Z,277
2017-02-02T08:55:43.708Z,276
2017-02-02T08:56:43.809Z,277
2017-02-02T08:57:43.921Z,277
2017-02-02T08:58:44.028Z,278
2017-02-02T08:59:44.136Z,278
2017-02-02T09:00:44.233Z,280
2017-02-02T09:01:44.332Z,280
2017-02-02T09:02:44.434Z,280
2017-02-02T09:03:44.512Z,280
2017-02-02T09:04:44.639Z,280
2017-02-02T09:05:44.743Z,280
2017-02-02T09:06:44.923Z,280
2017-02-02T09:07:45.089Z,280
2017-02-02T09:08:45.166Z,280
2017-02-02T09:09:45.235Z,279
2017-02-02T09:10:45.355Z,279
2017-02-02T09:11:45.445Z,280
2017-02-02T09:12:45.528Z,280
2017-02-02T09:13:45.687Z,280
2017-02-02T09:14:45.774Z,280
2017-02-02T09:15:45.868Z,280
2017-02-02T09:16:45.984Z,281
2017-02-02T09:17:46.107Z,280
2017-02-02T09:18:46.215Z,280
2017-02-02T09:19:46.313Z,279
2017-02-02T09:20:46.943Z,279
2017-02-02T09:21:46.486Z,279
2017-02-02T09:22:46.597Z,279
2017-02-02T09:23:46.693Z,280
2017-02-02T09:24:46.878Z,280
2017-02-02T09:25:47.015Z,280
2017-02-02T09:26:47.167Z,279
2017-02-02T09:27:47.942Z,279
2017-02-02T09:28:47.377Z,280
2017-02-02T09:29:47.524Z,280
2017-02-02T09:30:47.614Z,279
2017-02-02T09:31:47.704Z,279
2017-02-02T09:32:47.795Z,279
2017-02-02T09:33:47.864Z,280
2017-02-02T09:34:47.937Z,279
2017-02-02T09:35:48.018Z,279
2017-02-02T09:36:48.129Z,279
2017-02-02T09:37:48.210Z,279
2017-02-02T09:38:48.306Z,278
2017-02-02T09:39:48.409Z,278
2017-02-02T09:40:48.502Z,278
2017-02-02T09:41:48.602Z,278
2017-02-02T09:42:48.709Z,278
2017-02-02T09:43:48.921Z,277
2017-02-02T09:44:49.031Z,278
2017-02-02T09:45:49.126Z,278
2017-02-02T09:46:49.264Z,278
2017-02-02T09:47:49.350Z,278
2017-02-02T09:48:49.524Z,277
2017-02-02T09:49:49.645Z,278
2017-02-02T09:50:49.797Z,278
2017-02-02T09:51:49.907Z,278
2017-02-02T09:52:49.999Z,278
2017-02-02T09:53:50.115Z,277
2017-02-02T09:54:50.200Z,278
2017-02-02T09:55:50.285Z,278
2017-02-02T09:56:50.396Z,278
2017-02-02T09:57:50.483Z,278
2017-02-02T09:58:50.633Z,277
2017-02-02T09:59:50.744Z,277
2017-02-02T10:00:50.845Z,278
2017-02-02T10:01:50.956Z,278
2017-02-02T10:02:51.043Z,278
2017-02-02T10:03:51.113Z,278
2017-02-02T10:04:51.187Z,278
2017-02-02T10:05:51.275Z,278
2017-02-02T10:06:51.438Z,278
2017-02-02T10:07:51.525Z,278
2017-02-02T10:08:51.654Z,278
2017-02-02T10:09:51.847Z,278
2017-02-02T10:10:51.961Z,278
2017-02-02T10:11:52.078Z,278
2017-02-02T10:12:52.185Z,278
2017-02-02T10:13:52.307Z,278
2017-02-02T10:14:52.446Z,278
2017-02-02T10:15:52.549Z,279
2017-02-02T10:16:52.654Z,278
2017-02-02T10:17:52.764Z,278
2017-02-02T10:18:52.928Z,278
2017-02-02T10:19:53.103Z,279
2017-02-02T10:20:53.248Z,279
2017-02-02T10:21:53.342Z,278
2017-02-02T10:22:53.422Z,278
2017-02-02T10:23:53.541Z,278
2017-02-02T10:24:53.645Z,278
2017-02-02T10:25:53.768Z,278
2017-02-02T10:26:53.849Z,278
2017-02-02T10:27:53.961Z,278
2017-02-02T10:28:54.083Z,278
2017-02-02T10:29:54.171Z,278
2017-02-02T10:30:54.256Z,278
2017-02-02T10:31:54.381Z,278
2017-02-02T10:32:54.481Z,278
2017-02-02T10:33:54.583Z,278
2017-02-02T10:34:54.694Z,278
2017-02-02T10:35:54.800Z,278
2017-02-02T10:36:54.892Z,278
2017-02-02T10:37:55.061Z,278
2017-02-02T10:38:55.185Z,278
2017-02-02T10:39:55.303Z,278
2017-02-02T10:40:55.399Z,278
2017-02-02T10:41:55.498Z,278
2017-02-02T10:42:55.620Z,278
2017-02-02T10:43:55.720Z,278
2017-02-02T10:44:55.802Z,278
2017-02-02T10:45:55.899Z,278
2017-02-02T10:46:56.095Z,279
2017-02-02T10:47:56.202Z,278
2017-02-02T10:48:56.303Z,278
2017-02-02T10:49:56.397Z,278
2017-02-02T10:50:56.537Z,278
2017-02-02T10:51:56.655Z,278
2017-02-02T10:52:56.767Z,278
2017-02-02T10:53:56.897Z,278
2017-02-02T10:54:57.053Z,278
2017-02-02T10:55:57.183Z,278
2017-02-02T10:56:57.302Z,279
2017-02-02T10:57:57.450Z,278
2017-02-02T10:58:57.550Z,278
2017-02-02T10:59:57.616Z,278
2017-02-02T11:00:57.699Z,278
2017-02-02T11:01:57.814Z,278
2017-02-02T11:02:57.953Z,278
2017-02-02T11:03:58.137Z,278
2017-02-02T11:04:58.242Z,278
2017-02-02T11:05:58.355Z,279
2017-02-02T11:06:58.476Z,278
2017-02-02T11:07:58.591Z,278
2017-02-02T11:08:58.753Z,278
2017-02-02T11:09:58.887Z,279
2017-02-02T11:10:59.009Z,279
2017-02-02T11:11:59.129Z,278
2017-02-02T11:12:59.214Z,279
2017-02-02T11:13:59.368Z,279
2017-02-02T11:14:59.468Z,279
2017-02-02T11:15:59.598Z,279
2017-02-02T11:16:59.686Z,278
2017-02-02T11:17:59.792Z,279
2017-02-02T11:18:59.919Z,279
2017-02-02T11:20:00.545Z,278
2017-02-02T11:21:00.672Z,278
2017-02-02T11:22:00.921Z,279
2017-02-02T11:23:01.013Z,278
2017-02-02T11:24:01.216Z,279
2017-02-02T11:25:01.301Z,278
2017-02-02T11:26:01.399Z,279
2017-02-02T11:27:01.511Z,278
2017-02-02T11:28:01.628Z,279
2017-02-02T11:29:01.737Z,279
2017-02-02T11:30:01.873Z,279
2017-02-02T11:31:02.003Z,279
2017-02-02T11:32:02.090Z,279
2017-02-02T11:33:02.182Z,278
2017-02-02T11:34:02.315Z,278
2017-02-02T11:35:02.406Z,279
2017-02-02T11:36:02.547Z,279
2017-02-02T11:37:02.680Z,279
2017-02-02T11:38:02.761Z,279
2017-02-02T11:39:02.896Z,278
2017-02-02T11:40:03.040Z,278
2017-02-02T11:41:03.124Z,279
2017-02-02T11:42:03.276Z,278
2017-02-02T11:43:03.384Z,279
2017-02-02T11:44:03.523Z,279
2017-02-02T11:45:03.631Z,279
2017-02-02T11:46:03.758Z,279
2017-02-02T11:47:03.865Z,279
2017-02-02T11:48:03.960Z,279
2017-02-02T11:49:04.102Z,278
2017-02-02T11:50:04.167Z,279
2017-02-02T11:51:04.297Z,279
2017-02-02T11:52:04.451Z,279
2017-02-02T11:53:04.616Z,278
2017-02-02T11:54:04.747Z,279
2017-02-02T11:55:04.847Z,279
2017-02-02T11:56:04.924Z,278
2017-02-02T11:57:05.019Z,279
2017-02-02T11:58:05.132Z,279
2017-02-02T11:59:05.980Z,279
2017-02-02T12:00:05.359Z,279
2017-02-02T12:01:05.446Z,279
2017-02-02T12:02:05.564Z,279
2017-02-02T12:03:05.697Z,279
2017-02-02T12:04:05.792Z,278
2017-02-02T12:05:05.868Z,279
2017-02-02T12:06:06.003Z,279
2017-02-02T12:07:06.171Z,280
2017-02-02T12:08:06.314Z,279
2017-02-02T12:09:06.484Z,278
2017-02-02T12:10:06.582Z,278
2017-02-02T12:11:06.730Z,279
2017-02-02T12:12:06.868Z,279
2017-02-02T12:13:07.013Z,279
2017-02-02T12:14:07.118Z,279
2017-02-02T12:15:07.248Z,279
2017-02-02T12:16:07.362Z,278
2017-02-02T12:17:07.445Z,279
2017-02-02T12:18:07.544Z,279
2017-02-02T12:19:07.663Z,279
2017-02-02T12:20:07.737Z,279
2017-02-02T12:21:07.854Z,279
2017-02-02T12:22:08.035Z,279
2017-02-02T12:23:08.158Z,279
2017-02-02T12:24:08.301Z,279
2017-02-02T12:25:08.461Z,279
2017-02-02T12:26:08.539Z,279
2017-02-02T12:27:08.669Z,279
2017-02-02T12:28:08.784Z,279
2017-02-02T12:29:08.896Z,279
2017-02-02T12:30:09.050Z,279
2017-02-02T12:31:09.190Z,279
2017-02-02T12:32:09.278Z,279
2017-02-02T12:33:09.425Z,280
2017-02-02T12:34:09.527Z,279
2017-02-02T12:35:09.627Z,279
2017-02-02T12:36:09.759Z,279
2017-02-02T12:37:09.871Z,279
2017-02-02T12:38:09.982Z,278
2017-02-02T12:39:10.121Z,279
2017-02-02T12:40:10.249Z,279
2017-02-02T12:41:10.357Z,279
2017-02-02T12:42:10.482Z,279
2017-02-02T12:43:10.669Z,280
2017-02-02T12:44:10.785Z,279
2017-02-02T12:45:10.910Z,279
2017-02-02T12:46:11.042Z,279
2017-02-02T12:47:11.182Z,279
2017-02-02T12:48:11.295Z,278
2017-02-02T12:49:11.507Z,279
2017-02-02T12:50:12.499Z,279
2017-02-02T12:51:11.693Z,279
2017-02-02T12:52:11.811Z,279
2017-02-02T12:53:11.908Z,279
2017-02-02T12:54:12.021Z,279
2017-02-02T12:55:12.140Z,279
2017-02-02T12:56:12.218Z,279
2017-02-02T12:57:12.323Z,279
2017-02-02T12:58:12.406Z,279
2017-02-02T12:59:12.487Z,279
2017-02-02T13:00:12.612Z,279
2017-02-02T13:01:12.748Z,279
2017-02-02T13:02:12.868Z,279
2017-02-02T13:03:12.985Z,279
2017-02-02T13:04:13.083Z,279
2017-02-02T13:05:13.203Z,279
2017-02-02T13:06:13.329Z,280
2017-02-02T13:07:13.439Z,279
2017-02-02T13:08:13.562Z,279
2017-02-02T13:09:13.655Z,279
2017-02-02T13:10:13.764Z,279
2017-02-02T13:11:13.954Z,279
2017-02-02T13:12:14.052Z,279
2017-02-02T13:13:14.130Z,279
2017-02-02T13:14:14.268Z,279
2017-02-02T13:15:14.373Z,280
2017-02-02T13:16:14.505Z,279
2017-02-02T13:17:14.641Z,280
2017-02-02T13:18:14.821Z,279
2017-02-02T13:19:14.924Z,280
2017-02-02T13:20:15.064Z,280
2017-02-02T13:21:15.208Z,280
2017-02-02T13:22:15.305Z,279
2017-02-02T13:23:15.373Z,280
2017-02-02T13:24:15.479Z,280
2017-02-02T13:25:15.650Z,280
2017-02-02T13:26:15.762Z,279
2017-02-02T13:27:15.883Z,279
2017-02-02T13:28:16.000Z,280
2017-02-02T13:29:16.182Z,280
2017-02-02T13:30:16.305Z,280
2017-02-02T13:31:16.426Z,280
2017-02-02T13:32:16.586Z,280
2017-02-02T13:33:16.723Z,280
2017-02-02T13:34:16.846Z,280
2017-02-02T13:35:17.023Z,280
2017-02-02T13:36:17.130Z,280
2017-02-02T13:37:17.390Z,280
2017-02-02T13:38:17.523Z,280
2017-02-02T13:39:17.621Z,279
2017-02-02T13:40:17.812Z,280
2017-02-02T13:41:17.926Z,280
2017-02-02T13:42:18.027Z,280
2017-02-02T13:43:18.132Z,280
2017-02-02T13:44:18.281Z,279
2017-02-02T13:45:18.445Z,280
2017-02-02T13:46:18.664Z,280
2017-02-02T13:47:18.777Z,280
2017-02-02T13:48:18.936Z,280